Time;durP1;ratioP1;P1;durP2;ratioP2;P2;SDS_P1;SDS_P2;PMS_P1;PMS_P2;Temp;Humidity;BMP_temperature;BMP_pressure;BME280_temperature;BME280_humidity;BME280_pressure;Samples;Min_cycle;Max_cycle;Signal;HPM_P1;HPM_P2
2022/03/29 00:00:18;;;;;;;32.73;12.87;;;12.60;50.00;;;;;;5005315;28;20192;-77
2022/03/29 00:02:47;;;;;;;25.73;11.67;;;12.70;50.10;;;;;;5001929;28;21899;-78
2022/03/29 00:05:15;;;;;;;27.57;12.83;;;12.60;50.30;;;;;;5002562;28;20188;-77
2022/03/29 00:07:44;;;;;;;32.27;13.90;;;12.60;50.50;;;;;;5003332;28;20216;-78
2022/03/29 00:10:12;;;;;;;27.60;12.90;;;12.50;50.50;;;;;;5004011;28;20234;-77
2022/03/29 00:12:42;;;;;;;23.10;12.67;;;12.50;50.80;;;;;;5001993;28;20614;-77
2022/03/29 00:15:11;;;;;;;34.77;12.13;;;12.40;50.90;;;;;;5002939;28;20775;-77
2022/03/29 00:17:40;;;;;;;29.23;12.70;;;12.40;50.80;;;;;;5003928;28;20208;-77
2022/03/29 00:20:09;;;;;;;25.10;12.37;;;12.40;50.90;;;;;;5002391;28;20199;-76
2022/03/29 00:22:39;;;;;;;28.57;14.17;;;12.30;51.00;;;;;;5003283;28;20955;-77
2022/03/29 00:25:08;;;;;;;28.77;13.23;;;12.40;51.00;;;;;;5002766;28;20198;-77
2022/03/29 00:27:37;;;;;;;27.27;13.07;;;12.30;51.00;;;;;;5001625;28;20196;-76
2022/03/29 00:30:09;;;;;;;29.50;12.63;;;12.30;51.00;;;;;;5004628;28;20222;-76
2022/03/29 00:32:38;;;;;;;29.90;12.40;;;12.30;51.10;;;;;;5002463;28;20203;-78
2022/03/29 00:35:08;;;;;;;24.00;11.83;;;12.20;51.00;;;;;;5000650;28;22132;-77
2022/03/29 00:37:37;;;;;;;24.50;12.50;;;12.20;51.10;;;;;;5001248;28;20204;-77
2022/03/29 00:40:08;;;;;;;25.50;11.77;;;12.20;51.00;;;;;;5001885;28;20191;-77
2022/03/29 00:42:37;;;;;;;26.87;12.57;;;12.20;51.10;;;;;;5003220;28;20306;-76
2022/03/29 00:45:08;;;;;;;23.90;12.83;;;12.20;51.10;;;;;;5000256;28;20207;-77
2022/03/29 00:47:37;;;;;;;25.40;13.17;;;12.20;51.10;;;;;;5001826;28;20196;-78
2022/03/29 00:50:08;;;;;;;29.90;12.57;;;12.20;51.20;;;;;;5001014;28;20184;-77
2022/03/29 00:52:38;;;;;;;33.23;13.00;;;12.20;51.20;;;;;;5001049;28;20188;-77
2022/03/29 00:55:08;;;;;;;26.57;12.07;;;12.20;51.30;;;;;;5004291;28;20199;-77
2022/03/29 00:57:37;;;;;;;21.87;12.07;;;12.10;51.50;;;;;;5000413;28;20398;-77
2022/03/29 01:00:08;;;;;;;26.60;13.37;;;12.10;51.70;;;;;;5000692;28;20200;-77
2022/03/29 01:02:37;;;;;;;27.10;12.10;;;12.10;51.90;;;;;;5002145;28;20204;-77
2022/03/29 01:05:05;;;;;;;26.37;12.27;;;12.00;51.90;;;;;;5002829;28;20192;-77
2022/03/29 01:07:34;;;;;;;30.83;12.97;;;12.00;52.10;;;;;;5005521;28;20287;-77
2022/03/29 01:10:06;;;;;;;30.50;12.73;;;12.00;52.20;;;;;;5003759;28;20206;-77
2022/03/29 01:12:36;;;;;;;23.87;12.33;;;11.90;52.10;;;;;;5003996;28;20727;-77
2022/03/29 01:15:10;;;;;;;29.00;12.87;;;11.90;52.20;;;;;;5000798;28;20200;-78
2022/03/29 01:17:41;;;;;;;27.87;12.13;;;11.90;52.20;;;;;;5002831;28;20222;-78
2022/03/29 01:20:12;;;;;;;29.47;12.40;;;11.90;52.30;;;;;;5000568;28;20200;-78
2022/03/29 01:22:44;;;;;;;29.27;12.70;;;11.90;52.20;;;;;;5002155;28;21596;-77
2022/03/29 01:25:16;;;;;;;30.30;12.83;;;11.90;52.30;;;;;;5002817;28;20191;-77
2022/03/29 01:27:46;;;;;;;23.13;12.20;;;11.90;52.40;;;;;;5002631;28;20648;-76
2022/03/29 01:30:15;;;;;;;29.33;11.97;;;11.80;52.40;;;;;;5002826;28;20202;-77
2022/03/29 01:32:45;;;;;;;25.77;11.43;;;11.80;52.50;;;;;;5003261;28;20206;-77
2022/03/29 01:35:16;;;;;;;27.97;11.63;;;11.80;52.60;;;;;;5002477;28;20662;-76
2022/03/29 01:37:46;;;;;;;28.03;11.80;;;11.80;52.60;;;;;;5002935;28;20191;-77
2022/03/29 01:40:16;;;;;;;33.47;13.27;;;11.80;52.70;;;;;;5006587;28;20192;-77
2022/03/29 01:42:49;;;;;;;25.37;11.70;;;11.80;52.60;;;;;;5006622;28;20206;-76
2022/03/29 01:45:18;;;;;;;33.87;12.80;;;11.80;52.80;;;;;;5007996;28;20794;-77
2022/03/29 01:47:47;;;;;;;25.10;11.87;;;11.80;52.90;;;;;;5005111;28;20928;-77
2022/03/29 01:50:16;;;;;;;26.30;12.13;;;11.70;52.90;;;;;;5005343;28;20211;-77
2022/03/29 01:52:47;;;;;;;21.03;11.13;;;11.70;52.90;;;;;;5006183;28;20214;-77
2022/03/29 01:55:17;;;;;;;28.60;11.50;;;11.70;52.90;;;;;;5007131;28;20196;-77
2022/03/29 01:57:47;;;;;;;28.97;11.87;;;11.70;53.00;;;;;;5006480;28;20199;-77
2022/03/29 02:00:33;;;;;;;27.20;11.77;;;11.70;53.10;;;;;;5006224;28;20233;-77
2022/03/29 02:03:04;;;;;;;24.57;11.00;;;11.70;53.10;;;;;;5005593;28;20192;-76
2022/03/29 02:05:33;;;;;;;21.50;11.47;;;11.70;52.90;;;;;;5007229;28;20398;-77
2022/03/29 02:08:04;;;;;;;25.90;11.27;;;11.70;52.90;;;;;;5005057;28;20208;-77
2022/03/29 02:10:32;;;;;;;29.10;11.90;;;11.70;52.90;;;;;;5007454;28;20645;-77
2022/03/29 02:13:01;;;;;;;22.50;10.63;;;11.70;52.80;;;;;;5006714;28;20196;-77
2022/03/29 02:15:30;;;;;;;29.60;11.77;;;11.70;52.70;;;;;;5007494;28;20204;-76
2022/03/29 02:17:58;;;;;;;18.70;10.70;;;11.70;52.60;;;;;;5005528;28;20196;-77
2022/03/29 02:20:28;;;;;;;21.40;11.33;;;11.70;52.60;;;;;;5005716;28;20196;-78
2022/03/29 02:23:03;;;;;;;24.77;11.03;;;11.70;53.20;;;;;;5006415;28;20210;-77
2022/03/29 02:25:31;;;;;;;24.03;10.40;;;11.70;52.50;;;;;;5004516;28;20214;-77
2022/03/29 02:28:00;;;;;;;23.60;11.87;;;11.70;52.50;;;;;;5006260;28;20203;-77
2022/03/29 02:30:29;;;;;;;27.80;10.40;;;11.70;52.50;;;;;;5004471;28;20207;-77
2022/03/29 02:32:57;;;;;;;27.00;10.30;;;11.70;52.50;;;;;;5004010;28;20239;-77
2022/03/29 02:35:26;;;;;;;24.27;10.50;;;11.70;52.50;;;;;;5004905;28;20281;-77
2022/03/29 02:37:54;;;;;;;27.40;11.07;;;11.70;52.50;;;;;;5002963;28;20899;-78
2022/03/29 02:40:24;;;;;;;26.03;10.67;;;11.70;53.20;;;;;;5004008;28;20857;-77
2022/03/29 02:42:55;;;;;;;28.07;10.60;;;11.70;52.50;;;;;;5004645;28;20199;-77
2022/03/29 02:45:25;;;;;;;24.10;10.60;;;11.70;52.40;;;;;;5002853;28;20207;-76
2022/03/29 02:47:55;;;;;;;24.63;11.43;;;11.70;52.40;;;;;;5005406;28;20215;-77
2022/03/29 02:50:25;;;;;;;26.83;10.87;;;11.60;52.50;;;;;;5002359;28;20199;-76
2022/03/29 02:52:55;;;;;;;19.37;10.47;;;11.60;52.40;;;;;;5003353;28;20216;-77
2022/03/29 02:55:26;;;;;;;24.97;11.07;;;11.60;52.40;;;;;;5006057;28;20204;-77
2022/03/29 02:57:55;;;;;;;24.70;11.40;;;11.60;52.50;;;;;;5003605;28;20200;-76
2022/03/29 03:00:24;;;;;;;22.57;10.77;;;11.60;52.50;;;;;;5004156;28;20208;-76
2022/03/29 03:02:54;;;;;;;26.43;11.10;;;11.60;53.30;;;;;;5009498;28;20192;-77
2022/03/29 03:05:24;;;;;;;26.07;10.43;;;11.50;52.70;;;;;;5007623;28;20208;-77
2022/03/29 03:07:53;;;;;;;33.33;11.33;;;11.50;52.80;;;;;;5008618;28;20195;-77
2022/03/29 03:10:25;;;;;;;21.50;11.00;;;11.50;52.80;;;;;;5007921;28;20206;-78
2022/03/29 03:12:53;;;;;;;29.63;10.57;;;11.50;52.80;;;;;;5007388;28;20846;-77
2022/03/29 03:15:24;;;;;;;29.57;12.10;;;11.50;52.90;;;;;;5008369;28;20210;-77
2022/03/29 03:17:54;;;;;;;25.63;12.10;;;11.50;53.00;;;;;;5008019;28;20203;-78
2022/03/29 03:20:22;;;;;;;22.70;10.93;;;11.50;53.70;;;;;;5005777;28;20226;-77
2022/03/29 03:22:51;;;;;;;19.40;11.30;;;11.40;53.00;;;;;;5005324;28;20206;-78
2022/03/29 03:25:20;;;;;;;26.57;11.77;;;11.40;53.10;;;;;;5007020;28;20729;-77
2022/03/29 03:27:50;;;;;;;33.33;11.90;;;11.40;53.10;;;;;;5007965;28;20199;-77
2022/03/29 03:30:18;;;;;;;28.33;12.43;;;11.40;53.10;;;;;;5006470;28;20439;-78
2022/03/29 03:32:47;;;;;;;19.37;10.90;;;11.40;53.50;;;;;;5006135;28;20483;-77
2022/03/29 03:35:19;;;;;;;21.67;10.53;;;11.40;53.40;;;;;;5011382;28;20191;-76
2022/03/29 03:37:48;;;;;;;28.67;11.53;;;11.40;53.40;;;;;;5012600;28;20495;-77
2022/03/29 03:40:16;;;;;;;29.07;12.43;;;11.30;53.30;;;;;;5011807;28;20199;-77
2022/03/29 03:42:45;;;;;;;25.07;11.07;;;11.30;53.30;;;;;;5012207;28;20195;-76
2022/03/29 03:45:15;;;;;;;27.70;10.87;;;11.40;53.20;;;;;;5012089;28;20306;-77
2022/03/29 03:47:43;;;;;;;25.50;10.87;;;11.40;53.90;;;;;;5010988;28;20199;-77
2022/03/29 03:50:11;;;;;;;28.90;11.40;;;11.30;53.20;;;;;;5010900;28;20199;-77
2022/03/29 03:52:40;;;;;;;25.27;10.73;;;11.30;53.10;;;;;;5011463;28;20199;-78
2022/03/29 03:55:09;;;;;;;27.50;10.97;;;11.40;53.20;;;;;;5012525;28;20201;-77
2022/03/29 03:57:38;;;;;;;20.00;9.53;;;11.30;53.10;;;;;;5011138;28;20569;-77
2022/03/29 04:00:07;;;;;;;23.77;12.47;;;11.30;53.10;;;;;;5012200;28;20215;-77
2022/03/29 04:02:37;;;;;;;32.97;11.13;;;11.40;53.10;;;;;;5011698;28;20204;-78
2022/03/29 04:05:08;;;;;;;24.83;11.73;;;11.40;53.20;;;;;;5011370;28;20247;-78
2022/03/29 04:07:36;;;;;;;27.50;11.47;;;11.40;53.40;;;;;;5013857;28;20220;-77
2022/03/29 04:10:06;;;;;;;27.10;11.50;;;11.40;53.40;;;;;;5013323;28;20206;-77
2022/03/29 04:12:34;;;;;;;23.70;11.77;;;11.30;53.30;;;;;;5012114;28;20199;-77
2022/03/29 04:15:02;;;;;;;28.00;11.07;;;11.30;53.30;;;;;;5011595;28;20479;-78
2022/03/29 04:17:31;;;;;;;29.03;11.90;;;11.30;53.20;;;;;;5011699;28;20191;-77
2022/03/29 04:20:01;;;;;;;37.63;12.57;;;11.30;53.20;;;;;;5014222;28;20214;-78
2022/03/29 04:22:30;;;;;;;20.93;11.10;;;11.30;53.90;;;;;;5017746;28;20213;-78
2022/03/29 04:24:58;;;;;;;28.40;12.30;;;11.30;53.10;;;;;;5019367;28;20623;-77
2022/03/29 04:27:26;;;;;;;31.40;12.43;;;11.30;53.10;;;;;;5018764;28;20196;-78
2022/03/29 04:29:55;;;;;;;26.90;13.90;;;11.30;53.00;;;;;;5016027;28;20678;-77
2022/03/29 04:32:23;;;;;;;34.47;12.90;;;11.30;53.10;;;;;;5017388;28;20203;-78
2022/03/29 04:34:51;;;;;;;30.30;13.23;;;11.30;53.20;;;;;;5014778;28;20209;-78
2022/03/29 04:37:24;;;;;;;26.80;11.93;;;11.30;53.10;;;;;;5011881;28;20833;-77
2022/03/29 04:39:52;;;;;;;28.07;12.50;;;11.30;53.30;;;;;;5014358;28;20205;-77
2022/03/29 04:42:21;;;;;;;28.53;11.67;;;11.30;53.10;;;;;;5013957;28;20211;-79
2022/03/29 04:44:49;;;;;;;24.67;11.80;;;11.30;53.10;;;;;;5010839;28;20222;-78
2022/03/29 04:47:17;;;;;;;32.20;11.57;;;11.30;53.10;;;;;;5011176;28;20222;-78
2022/03/29 04:49:46;;;;;;;31.87;12.87;;;11.30;53.10;;;;;;5012931;28;20206;-78
2022/03/29 04:52:15;;;;;;;27.37;12.40;;;11.30;53.00;;;;;;5012849;28;20207;-78
2022/03/29 04:54:44;;;;;;;28.27;12.83;;;11.40;53.10;;;;;;5011964;28;20206;-78
2022/03/29 04:57:13;;;;;;;34.40;13.27;;;11.40;53.10;;;;;;5013382;28;20199;-77
2022/03/29 04:59:41;;;;;;;29.47;12.17;;;11.40;53.10;;;;;;5010273;28;20195;-78
2022/03/29 05:02:15;;;;;;;25.83;13.87;;;11.40;53.20;;;;;;5011140;28;20194;-78
2022/03/29 05:04:44;;;;;;;30.83;15.67;;;11.30;53.10;;;;;;5013226;28;20196;-78
2022/03/29 05:07:13;;;;;;;33.17;15.13;;;11.40;53.30;;;;;;5012756;28;20200;-78
2022/03/29 05:09:41;;;;;;;34.40;14.63;;;11.40;53.20;;;;;;5010999;28;20199;-77
2022/03/29 05:12:11;;;;;;;45.57;16.03;;;11.40;53.00;;;;;;5011280;28;20211;-77
2022/03/29 05:14:39;;;;;;;28.87;13.87;;;11.50;53.10;;;;;;5012578;28;20207;-77
2022/03/29 05:17:10;;;;;;;30.87;14.43;;;11.50;53.20;;;;;;5013098;28;20198;-77
2022/03/29 05:19:39;;;;;;;29.87;13.67;;;11.50;53.10;;;;;;5011680;28;20207;-78
2022/03/29 05:22:07;;;;;;;31.23;13.87;;;11.50;53.20;;;;;;5012962;28;20200;-78
2022/03/29 05:24:35;;;;;;;35.70;13.97;;;11.60;53.20;;;;;;5009783;28;20224;-77
2022/03/29 05:27:04;;;;;;;33.90;12.90;;;11.70;53.20;;;;;;5012316;28;20216;-77
2022/03/29 05:29:34;;;;;;;32.83;13.03;;;11.70;53.20;;;;;;5011181;28;20212;-77
2022/03/29 05:32:02;;;;;;;25.33;12.70;;;11.70;53.00;;;;;;5013090;28;20213;-78
2022/03/29 05:34:31;;;;;;;27.03;12.43;;;11.70;52.90;;;;;;5012303;28;20208;-77
2022/03/29 05:37:00;;;;;;;32.47;12.33;;;11.80;52.70;;;;;;5013923;28;20481;-78
2022/03/29 05:39:28;;;;;;;26.13;12.13;;;11.80;52.70;;;;;;5012398;28;20199;-78
2022/03/29 05:41:56;;;;;;;27.07;13.47;;;11.90;52.80;;;;;;5010492;28;20202;-77
2022/03/29 05:44:25;;;;;;;32.47;14.47;;;11.90;52.60;;;;;;5011138;28;20204;-79
2022/03/29 05:49:43;;;;;;;27.20;14.43;;;12.10;52.60;;;;;;5011565;28;20203;-78
2022/03/29 05:52:14;;;;;;;27.50;14.57;;;12.10;52.30;;;;;;5011894;28;20200;-79
2022/03/29 05:54:45;;;;;;;33.83;14.03;;;12.10;52.20;;;;;;5012498;28;21756;-79
2022/03/29 05:57:15;;;;;;;37.93;14.90;;;12.20;52.10;;;;;;5011671;28;20705;-79
2022/03/29 05:59:43;;;;;;;28.43;15.07;;;12.30;52.10;;;;;;4992572;28;20597;-79
2022/03/29 06:02:13;;;;;;;29.53;15.63;;;12.30;52.10;;;;;;5012467;28;20208;-78
2022/03/29 06:04:42;;;;;;;36.53;15.40;;;12.40;52.00;;;;;;5012253;28;20196;-78
2022/03/29 06:07:11;;;;;;;32.83;16.20;;;12.50;51.90;;;;;;5009255;28;20900;-77
2022/03/29 06:09:39;;;;;;;34.40;15.57;;;12.50;51.90;;;;;;5011970;28;20202;-78
2022/03/29 06:12:08;;;;;;;38.93;15.00;;;12.50;51.80;;;;;;5012632;28;20196;-78
2022/03/29 06:14:36;;;;;;;33.83;16.77;;;12.60;52.00;;;;;;5012644;28;20204;-78
2022/03/29 06:17:06;;;;;;;33.17;15.77;;;12.60;52.00;;;;;;5016682;28;21209;-78
2022/03/29 06:19:36;;;;;;;34.50;15.50;;;12.60;52.00;;;;;;5018957;28;20199;-79
2022/03/29 06:22:05;;;;;;;33.57;15.10;;;12.70;52.00;;;;;;5014574;28;20229;-78
2022/03/29 06:24:34;;;;;;;31.67;15.37;;;12.70;52.10;;;;;;5019921;28;20653;-78
2022/03/29 06:27:02;;;;;;;30.00;15.77;;;12.80;52.20;;;;;;5019894;28;20222;-77
2022/03/29 06:29:31;;;;;;;37.70;16.60;;;12.80;52.30;;;;;;5019177;28;20296;-78
2022/03/29 06:32:00;;;;;;;37.47;18.40;;;12.90;52.30;;;;;;5018772;28;20202;-79
2022/03/29 06:34:29;;;;;;;32.97;18.30;;;12.90;52.00;;;;;;5014664;28;20279;-79
2022/03/29 06:36:59;;;;;;;34.83;18.57;;;13.00;51.80;;;;;;5011265;28;20200;-78
2022/03/29 06:39:29;;;;;;;32.10;16.20;;;13.00;51.70;;;;;;5015613;28;20209;-78
2022/03/29 06:41:57;;;;;;;29.70;15.27;;;13.10;51.80;;;;;;5014951;28;20192;-79
2022/03/29 06:44:27;;;;;;;29.93;15.60;;;13.20;51.80;;;;;;5015104;28;20200;-78
2022/03/29 06:46:57;;;;;;;27.80;16.20;;;13.30;51.70;;;;;;5014668;28;20233;-77
2022/03/29 06:49:25;;;;;;;36.00;16.43;;;13.30;51.80;;;;;;5011531;28;20931;-78
2022/03/29 06:51:56;;;;;;;31.63;16.30;;;13.40;51.80;;;;;;5014140;28;20203;-79
2022/03/29 06:54:26;;;;;;;40.50;16.07;;;13.60;51.80;;;;;;5015008;28;21857;-77
2022/03/29 06:56:55;;;;;;;39.20;17.47;;;13.70;51.80;;;;;;5012607;28;20257;-77
2022/03/29 06:59:26;;;;;;;37.20;17.90;;;13.80;51.60;;;;;;5016046;28;21170;-78
2022/03/29 07:02:13;;;;;;;37.40;17.43;;;13.90;51.50;;;;;;5015150;28;20196;-78
2022/03/29 07:04:42;;;;;;;38.83;17.60;;;14.00;51.20;;;;;;5013229;28;20206;-78
2022/03/29 07:07:11;;;;;;;39.43;17.27;;;14.10;50.90;;;;;;5013798;28;20212;-77
2022/03/29 07:12:26;;;;;;;32.13;16.80;;;14.50;51.10;;;;;;5013124;28;20200;-78
2022/03/29 07:14:55;;;;;;;33.40;16.20;;;14.60;50.40;;;;;;5012138;28;20672;-78
2022/03/29 07:17:23;;;;;;;28.33;15.13;;;14.70;49.90;;;;;;5012069;28;20912;-78
2022/03/29 07:19:52;;;;;;;25.13;15.23;;;14.90;49.80;;;;;;5012963;28;20204;-78
2022/03/29 07:22:23;;;;;;;38.13;17.85;;;15.00;49.70;;;;;;5007656;28;20451;-78
2022/03/29 07:24:55;;;;;;;29.53;15.10;;;15.20;49.70;;;;;;5012933;28;20570;-78
2022/03/29 07:27:26;;;;;;;28.77;14.60;;;15.30;49.30;;;;;;5010468;28;20214;-77
2022/03/29 07:29:59;;;;;;;28.75;15.05;;;15.50;48.40;;;;;;5013127;28;20439;-79
2022/03/29 07:32:28;;;;;;;37.67;14.10;;;15.70;48.00;;;;;;5013922;28;20196;-79
2022/03/29 07:34:59;;;;;;;28.90;12.60;;;15.80;47.70;;;;;;5012471;28;20196;-77
2022/03/29 07:37:28;;;;;;;21.97;11.00;;;16.00;47.20;;;;;;5012874;28;20218;-79
2022/03/29 07:39:58;;;;;;;23.73;11.40;;;16.00;46.00;;;;;;5011370;28;20206;-77
2022/03/29 07:42:27;;;;;;;24.97;11.43;;;16.20;45.80;;;;;;5011019;28;20247;-77
2022/03/29 07:44:56;;;;;;;27.00;9.77;;;16.40;45.80;;;;;;5012737;28;20200;-78
2022/03/29 07:47:24;;;;;;;23.83;10.43;;;16.50;44.30;;;;;;5011005;28;20243;-78
2022/03/29 07:50:11;;;;;;;31.10;11.77;;;16.50;43.30;;;;;;5013495;28;20290;-78
2022/03/29 07:53:00;;;;;;;19.07;9.10;;;16.80;43.90;;;;;;5011709;28;20209;-75
2022/03/29 07:55:30;;;;;;;18.57;8.87;;;16.90;44.00;;;;;;5010120;28;20192;-76
2022/03/29 07:58:09;;;;;;;15.23;7.43;;;17.00;43.40;;;;;;5009988;28;20274;-77
2022/03/29 08:00:38;;;;;;;19.10;9.37;;;17.10;42.80;;;;;;5010910;28;20196;-76
2022/03/29 08:03:12;;;;;;;18.83;9.23;;;17.30;42.90;;;;;;5010540;28;21146;-75
2022/03/29 08:05:42;;;;;;;23.07;9.60;;;17.40;43.60;;;;;;5012145;28;20200;-78
2022/03/29 08:08:13;;;;;;;18.37;8.93;;;17.50;43.60;;;;;;5009838;28;20220;-77
2022/03/29 08:10:45;;;;;;;19.33;9.07;;;17.70;44.00;;;;;;5009916;28;20210;-77
2022/03/29 08:13:14;;;;;;;22.73;8.77;;;17.80;43.20;;;;;;5008203;28;20891;-77
2022/03/29 08:15:44;;;;;;;24.60;9.47;;;17.90;42.60;;;;;;5010703;28;20203;-77
2022/03/29 08:18:13;;;;;;;22.57;9.70;;;17.90;42.60;;;;;;5009588;28;20192;-77
2022/03/29 08:20:43;;;;;;;16.93;8.77;;;18.00;42.60;;;;;;5010462;28;20657;-76
2022/03/29 08:23:12;;;;;;;21.20;9.23;;;18.10;43.00;;;;;;5008550;28;20200;-77
2022/03/29 08:25:43;;;;;;;18.90;8.50;;;18.20;42.60;;;;;;5010722;28;20204;-79
2022/03/29 08:28:12;;;;;;;16.93;9.03;;;18.20;42.80;;;;;;5011753;28;20212;-76
2022/03/29 08:30:41;;;;;;;22.13;8.33;;;18.30;42.40;;;;;;5012001;28;20203;-77
2022/03/29 08:33:10;;;;;;;17.13;8.10;;;18.40;42.60;;;;;;5010523;28;20196;-77
2022/03/29 08:35:38;;;;;;;19.40;9.67;;;18.50;42.30;;;;;;5010370;28;20199;-76
2022/03/29 08:38:07;;;;;;;16.63;8.87;;;18.50;42.30;;;;;;5008757;28;20221;-77
2022/03/29 08:40:57;;;;;;;16.27;8.77;;;18.60;42.60;;;;;;5010956;28;20279;-77
2022/03/29 08:43:27;;;;;;;17.57;8.53;;;18.70;42.60;;;;;;5011225;28;20195;-77
2022/03/29 08:45:57;;;;;;;19.57;10.40;;;18.90;42.80;;;;;;5011555;28;20204;-77
2022/03/29 08:48:27;;;;;;;21.90;10.43;;;18.90;42.90;;;;;;5009675;28;20456;-79
2022/03/29 08:50:59;;;;;;;23.60;9.60;;;19.00;42.60;;;;;;5010858;28;20869;-79
2022/03/29 08:53:48;;;;;;;16.37;9.40;;;19.10;42.70;;;;;;5010253;28;20203;-77
2022/03/29 08:56:19;;;;;;;27.33;9.93;;;19.30;43.20;;;;;;5011117;28;20228;-77
2022/03/29 08:58:48;;;;;;;21.03;9.53;;;19.40;43.10;;;;;;5009542;28;20204;-82
2022/03/29 09:01:19;;;;;;;18.77;9.87;;;19.50;42.40;;;;;;5010547;28;20565;-79
2022/03/29 09:04:09;;;;;;;18.60;8.97;;;19.50;42.00;;;;;;5011148;28;20191;-78
2022/03/29 09:07:00;;;;;;;19.47;9.67;;;19.60;42.10;;;;;;5008975;28;20204;-79
2022/03/29 09:09:30;;;;;;;18.03;8.80;;;19.70;42.10;;;;;;5011096;28;20196;-78
2022/03/29 09:12:10;;;;;;;25.30;9.97;;;19.80;41.80;;;;;;5010057;28;20204;-78
2022/03/29 09:14:52;;;;;;;21.43;10.00;;;19.80;42.00;;;;;;5010807;28;20199;-83
2022/03/29 09:17:30;;;;;;;22.97;10.00;;;19.90;41.70;;;;;;5010969;28;20438;-80
2022/03/29 09:20:00;;;;;;;20.00;10.03;;;20.00;41.70;;;;;;5010870;28;20602;-79
2022/03/29 09:22:36;;;;;;;19.93;9.97;;;20.10;41.80;;;;;;5010730;28;20192;-79
2022/03/29 09:25:06;;;;;;;22.47;10.03;;;20.10;41.30;;;;;;5010024;28;20223;-81
2022/03/29 09:27:56;;;;;;;18.97;9.80;;;20.20;41.00;;;;;;5010994;28;20306;-80
2022/03/29 09:30:25;;;;;;;24.40;10.90;;;20.30;41.50;;;;;;5010199;28;20214;-80
2022/03/29 09:33:00;;;;;;;19.67;9.57;;;20.30;41.10;;;;;;5009838;28;20199;-78
2022/03/29 09:35:30;;;;;;;20.13;10.97;;;20.40;41.10;;;;;;5008672;28;20204;-77
2022/03/29 09:38:00;;;;;;;22.67;9.97;;;20.40;40.70;;;;;;5009660;28;20200;-78
2022/03/29 09:40:39;;;;;;;19.10;9.63;;;20.40;40.80;;;;;;5010631;28;20200;-79
2022/03/29 09:43:10;;;;;;;14.57;8.40;;;20.50;41.00;;;;;;5010622;28;20196;-78
2022/03/29 09:45:44;;;;;;;19.93;9.17;;;20.50;41.10;;;;;;5008893;28;20203;-78
2022/03/29 09:48:38;;;;;;;16.10;7.90;;;20.60;41.10;;;;;;5008162;28;20305;-78
2022/03/29 09:51:18;;;;;;;19.53;8.83;;;20.70;40.90;;;;;;5009031;28;20733;-77
2022/03/29 09:53:51;;;;;;;16.57;7.83;;;20.70;40.50;;;;;;5010664;28;20673;-77
2022/03/29 09:56:24;;;;;;;17.53;9.17;;;20.80;40.70;;;;;;5009799;28;20196;-82
2022/03/29 09:59:15;;;;;;;16.50;8.83;;;20.80;41.00;;;;;;5009630;28;20553;-79
2022/03/29 10:01:49;;;;;;;19.50;8.63;;;20.90;40.70;;;;;;5013171;28;20691;-78
2022/03/29 10:04:18;;;;;;;21.47;8.27;;;20.90;40.80;;;;;;5012266;28;20192;-77
2022/03/29 10:06:49;;;;;;;20.95;9.00;;;21.00;40.90;;;;;;5012717;28;20802;-79
2022/03/29 10:09:30;;;;;;;19.60;8.30;;;21.10;40.60;;;;;;5012661;28;20214;-79
2022/03/29 10:12:03;;;;;;;17.63;8.13;;;21.10;39.80;;;;;;5012676;28;20222;-79
2022/03/29 10:14:36;;;;;;;16.27;8.67;;;21.10;39.80;;;;;;5013194;28;20203;-79
2022/03/29 10:17:06;;;;;;;16.63;8.13;;;21.20;40.00;;;;;;5012446;28;20196;-79
2022/03/29 10:19:35;;;;;;;21.03;8.70;;;21.20;39.70;;;;;;5012556;28;20199;-79
2022/03/29 10:22:04;;;;;;;14.20;7.70;;;21.20;39.90;;;;;;5011363;28;20195;-78
2022/03/29 10:24:33;;;;;;;15.30;7.80;;;21.30;39.80;;;;;;5013402;28;20210;-76
2022/03/29 10:27:02;;;;;;;14.50;8.30;;;21.40;39.90;;;;;;5011917;28;20198;-78
2022/03/29 10:29:33;;;;;;;17.77;8.97;;;21.50;40.40;;;;;;5013912;28;20811;-78
2022/03/29 10:32:05;;;;;;;17.65;9.05;;;21.60;40.30;;;;;;5011884;28;20563;-77
2022/03/29 10:34:37;;;;;;;19.37;8.87;;;21.70;40.20;;;;;;5010464;28;20223;-78
2022/03/29 10:37:08;;;;;;;16.47;8.87;;;21.70;39.70;;;;;;5013442;28;20203;-79
2022/03/29 10:39:42;;;;;;;23.07;8.80;;;21.80;39.70;;;;;;5014526;28;20211;-79
2022/03/29 10:42:25;;;;;;;20.80;9.20;;;21.80;39.60;;;;;;5014656;28;20206;-79
2022/03/29 10:45:13;;;;;;;21.02;10.05;;;21.90;39.20;;;;;;5014305;28;20196;-77
2022/03/29 10:48:09;;;;;;;18.10;9.37;;;21.90;39.10;;;;;;5013303;28;20242;-76
2022/03/29 10:50:58;;;;;;;20.63;8.30;;;21.90;39.20;;;;;;5012517;28;20196;-77
2022/03/29 10:53:30;;;;;;;21.80;9.10;;;21.90;39.20;;;;;;5012864;28;20272;-77
2022/03/29 10:56:20;;;;;;;20.23;9.93;;;22.00;39.50;;;;;;5013943;28;20195;-76
2022/03/29 10:59:11;;;;;;;15.65;9.65;;;22.00;39.60;;;;;;5012731;28;20231;-77
2022/03/29 11:01:42;;;;;;;20.55;9.63;;;22.10;39.70;;;;;;5012975;28;20203;-76
2022/03/29 11:04:21;;;;;;;26.08;9.15;;;22.10;39.70;;;;;;5013246;28;20199;-77
2022/03/29 11:07:14;;;;;;;19.38;8.93;;;22.20;39.80;;;;;;5009735;28;20192;-78
2022/03/29 11:09:46;;;;;;;22.00;8.52;;;22.30;39.60;;;;;;5014191;28;20216;-78
2022/03/29 11:12:40;;;;;;;17.73;7.97;;;22.40;39.80;;;;;;5011139;28;20203;-79
2022/03/29 11:15:48;;;;;;;18.10;8.98;;;22.50;39.20;;;;;;4988705;28;20227;-80
2022/03/29 11:18:52;;;;;;;23.83;9.90;;;22.50;39.10;;;;;;5011817;28;20191;-80
2022/03/29 11:21:35;;;;;;;27.58;9.57;;;22.60;38.80;;;;;;5012521;28;20212;-79
2022/03/29 11:24:05;;;;;;;20.85;9.30;;;22.70;38.40;;;;;;5010902;28;20191;-77
2022/03/29 11:26:35;;;;;;;16.33;9.05;;;22.70;38.80;;;;;;5010198;28;20666;-77
2022/03/29 11:29:07;;;;;;;16.88;9.20;;;22.80;39.00;;;;;;5011575;28;20208;-77
2022/03/29 11:31:38;;;;;;;16.38;8.75;;;22.90;38.20;;;;;;5014592;28;20271;-79
2022/03/29 11:34:11;;;;;;;18.70;9.23;;;23.00;38.50;;;;;;5012537;28;20281;-78
2022/03/29 11:36:41;;;;;;;16.33;8.40;;;23.00;38.50;;;;;;5014588;28;20202;-77
2022/03/29 11:39:25;;;;;;;16.10;8.05;;;23.20;38.30;;;;;;5013685;28;20195;-78
2022/03/29 11:41:55;;;;;;;19.52;9.40;;;23.20;37.90;;;;;;5010756;28;20199;-79
2022/03/29 11:44:25;;;;;;;17.35;8.75;;;23.20;37.90;;;;;;5012986;28;20197;-80
2022/03/29 11:46:56;;;;;;;19.20;9.05;;;23.20;37.80;;;;;;5013354;28;20708;-77
2022/03/29 11:49:28;;;;;;;15.07;8.02;;;23.30;37.70;;;;;;5011691;28;20228;-77
2022/03/29 11:52:08;;;;;;;16.70;8.80;;;23.40;37.30;;;;;;5011767;28;20675;-77
2022/03/29 11:54:44;;;;;;;19.42;8.60;;;23.50;37.90;;;;;;5011677;28;20200;-78
2022/03/29 11:57:23;;;;;;;19.17;8.10;;;23.50;37.30;;;;;;5010304;28;20194;-78
2022/03/29 11:59:53;;;;;;;20.38;8.50;;;23.60;37.30;;;;;;5010207;28;20834;-79
2022/03/29 12:02:26;;;;;;;23.17;8.63;;;23.70;37.60;;;;;;5010884;28;20609;-78
2022/03/29 12:04:57;;;;;;;17.23;8.23;;;23.80;36.70;;;;;;5007292;28;20323;-79
2022/03/29 12:07:36;;;;;;;15.13;8.35;;;23.80;36.60;;;;;;5013792;28;20206;-78
2022/03/29 12:10:06;;;;;;;14.25;7.70;;;23.90;36.50;;;;;;5010815;28;20215;-79
2022/03/29 12:12:34;;;;;;;21.33;8.40;;;24.00;36.50;;;;;;5011701;28;20198;-78
2022/03/29 12:15:05;;;;;;;17.98;8.50;;;24.00;36.10;;;;;;5014221;28;20917;-78
2022/03/29 12:17:34;;;;;;;19.30;8.23;;;24.10;36.10;;;;;;5013389;28;20203;-78
2022/03/29 12:20:05;;;;;;;18.88;8.30;;;24.20;36.40;;;;;;5010914;28;20211;-78
2022/03/29 12:22:33;;;;;;;17.88;8.38;;;24.30;36.00;;;;;;5011900;28;20597;-78
2022/03/29 12:25:03;;;;;;;21.13;9.07;;;24.50;36.30;;;;;;5012360;28;20290;-78
2022/03/29 12:27:31;;;;;;;17.60;8.50;;;24.60;35.90;;;;;;5010906;28;20207;-77
2022/03/29 12:30:02;;;;;;;18.40;9.02;;;24.60;35.80;;;;;;5010849;28;20214;-78
2022/03/29 12:32:31;;;;;;;16.65;8.52;;;24.70;35.70;;;;;;5009382;28;20207;-79
2022/03/29 12:35:03;;;;;;;12.20;7.55;;;24.80;35.50;;;;;;5010721;28;20195;-79
2022/03/29 12:37:34;;;;;;;22.17;9.27;;;24.80;35.60;;;;;;5008891;28;20564;-76
2022/03/29 12:40:10;;;;;;;13.95;8.57;;;24.90;35.60;;;;;;5012665;28;20250;-78
2022/03/29 12:42:39;;;;;;;17.77;8.20;;;25.00;35.60;;;;;;5010801;28;20672;-78
2022/03/29 12:45:08;;;;;;;16.80;8.40;;;25.00;35.30;;;;;;5008752;28;21081;-80
2022/03/29 12:47:38;;;;;;;14.45;8.25;;;25.10;35.20;;;;;;5012225;28;20323;-78
2022/03/29 12:50:08;;;;;;;15.93;7.95;;;25.20;35.20;;;;;;5010286;28;20694;-79
2022/03/29 12:52:43;;;;;;;15.68;7.75;;;25.30;35.40;;;;;;5010831;28;20192;-78
2022/03/29 12:55:16;;;;;;;19.58;8.63;;;25.40;35.40;;;;;;5008324;28;21816;-77
2022/03/29 12:57:45;;;;;;;13.82;7.40;;;25.50;34.70;;;;;;5010529;28;20192;-80